Time;durP1;ratioP1;P1;durP2;ratioP2;P2;SDS_P1;SDS_P2;PMS_P1;PMS_P2;Temp;Humidity;BMP_temperature;BMP_pressure;BME280_temperature;BME280_humidity;BME280_pressure;Samples;Min_cycle;Max_cycle;Signal;HPM_P1;HPM_P2
2023/07/13 00:01:39;;;;;;;12.57;6.10;;;19.90;63.50;;;;;;5080687;27;46560;-81
2023/07/13 00:04:05;;;;;;;15.10;5.87;;;19.90;63.50;;;;;;5077222;27;46593;-80
2023/07/13 00:06:32;;;;;;;10.93;5.80;;;19.90;63.50;;;;;;5079427;27;46697;-80
2023/07/13 00:08:59;;;;;;;12.70;6.10;;;19.90;63.40;;;;;;5082573;27;46657;-80
2023/07/13 00:11:24;;;;;;;13.30;5.67;;;19.90;63.50;;;;;;5078730;27;46669;-80
2023/07/13 00:13:50;;;;;;;10.30;5.50;;;19.90;63.50;;;;;;5079011;27;46478;-80
2023/07/13 00:16:15;;;;;;;12.77;6.00;;;19.90;63.30;;;;;;5081212;27;46801;-80
2023/07/13 00:18:41;;;;;;;9.57;6.00;;;19.90;63.50;;;;;;5077988;27;47245;-78
2023/07/13 00:21:07;;;;;;;10.67;6.00;;;19.90;63.50;;;;;;5083493;27;46430;-80
2023/07/13 00:23:34;;;;;;;10.77;6.43;;;19.90;63.50;;;;;;5077386;27;46394;-80
2023/07/13 00:26:05;;;;;;;9.57;6.13;;;20.00;63.40;;;;;;5062258;27;47966;-79
2023/07/13 00:28:32;;;;;;;17.83;5.80;;;19.90;63.30;;;;;;5080069;27;46784;-80
2023/07/13 00:30:58;;;;;;;16.10;6.27;;;19.90;63.50;;;;;;5081066;27;46868;-79
2023/07/13 00:33:24;;;;;;;10.97;7.27;;;20.00;63.50;;;;;;5081054;27;47678;-79
2023/07/13 00:35:50;;;;;;;11.30;6.50;;;20.00;63.80;;;;;;5078798;27;48853;-80
2023/07/13 00:38:16;;;;;;;14.87;5.97;;;19.90;63.80;;;;;;5080101;27;46478;-82
2023/07/13 00:40:42;;;;;;;11.17;7.10;;;19.80;63.80;;;;;;5078015;27;46351;-80
2023/07/13 00:43:16;;;;;;;14.93;6.33;;;19.90;63.90;;;;;;5078947;27;46562;-80
2023/07/13 00:45:45;;;;;;;16.10;7.03;;;19.90;63.70;;;;;;5079774;27;46466;-81
2023/07/13 00:48:14;;;;;;;12.50;7.17;;;19.90;63.50;;;;;;5082539;27;46791;-80
2023/07/13 00:50:41;;;;;;;18.00;7.70;;;19.90;63.50;;;;;;5079992;27;46414;-80
2023/07/13 00:53:08;;;;;;;10.50;6.17;;;19.90;64.00;;;;;;5083230;27;47529;-81
2023/07/13 00:55:34;;;;;;;22.13;7.37;;;20.00;63.70;;;;;;5081852;27;47215;-80
2023/07/13 00:58:00;;;;;;;17.20;7.50;;;19.90;63.80;;;;;;5079766;27;46639;-80
2023/07/13 01:00:27;;;;;;;12.93;6.93;;;19.90;63.90;;;;;;5079651;27;45831;-80
2023/07/13 01:02:52;;;;;;;11.40;5.97;;;19.90;63.90;;;;;;5060892;27;45982;-81
2023/07/13 01:05:22;;;;;;;11.43;7.23;;;19.90;63.90;;;;;;5079890;27;47671;-79
2023/07/13 01:07:51;;;;;;;16.07;6.10;;;20.00;64.10;;;;;;5079796;27;47037;-80
2023/07/13 01:10:17;;;;;;;23.90;7.23;;;19.90;64.20;;;;;;5078174;27;46692;-80
2023/07/13 01:12:42;;;;;;;14.00;5.90;;;19.90;64.30;;;;;;5079365;27;46510;-80
2023/07/13 01:15:47;;;;;;;12.60;5.87;;;19.80;64.30;;;;;;5079531;27;46477;-80
2023/07/13 01:18:18;;;;;;;15.33;6.50;;;19.80;64.30;;;;;;5060150;27;47012;-81
2023/07/13 01:21:02;;;;;;;12.90;6.00;;;19.80;64.20;;;;;;5082204;27;46488;-80
2023/07/13 01:23:29;;;;;;;11.03;4.93;;;19.80;64.10;;;;;;5080394;27;45974;-81
2023/07/13 01:25:56;;;;;;;15.87;5.90;;;19.80;64.10;;;;;;5083413;27;46697;-81
2023/07/13 01:28:23;;;;;;;6.87;4.47;;;19.70;64.20;;;;;;5079485;27;45772;-79
2023/07/13 01:30:48;;;;;;;8.87;6.03;;;19.70;64.30;;;;;;5075871;27;46421;-80
2023/07/13 01:33:16;;;;;;;9.30;5.43;;;19.70;64.70;;;;;;5079575;27;46684;-79
2023/07/13 01:35:43;;;;;;;14.13;5.37;;;19.50;65.10;;;;;;5078424;27;46649;-82
2023/07/13 01:38:09;;;;;;;13.33;6.07;;;19.50;65.20;;;;;;5060970;27;47139;-81
2023/07/13 01:40:36;;;;;;;10.63;5.73;;;19.50;64.90;;;;;;5063428;27;46411;-82
2023/07/13 01:43:02;;;;;;;9.30;5.33;;;19.50;64.90;;;;;;5077207;27;46494;-80
2023/07/13 01:45:28;;;;;;;10.97;5.93;;;19.60;64.80;;;;;;5079691;27;46503;-80
2023/07/13 01:47:54;;;;;;;11.83;4.80;;;19.70;64.50;;;;;;5077775;27;46720;-82
2023/07/13 01:50:19;;;;;;;10.40;4.90;;;19.50;65.10;;;;;;5079441;27;46412;-82
2023/07/13 01:52:45;;;;;;;8.90;4.27;;;19.40;65.80;;;;;;5081809;27;46641;-83
2023/07/13 01:55:11;;;;;;;8.30;3.87;;;19.30;66.00;;;;;;5060306;27;47959;-81
2023/07/13 01:57:36;;;;;;;7.60;3.63;;;19.20;65.80;;;;;;5078436;27;46418;-80
2023/07/13 02:00:07;;;;;;;7.23;3.23;;;19.20;65.60;;;;;;5084273;27;46618;-81
2023/07/13 02:02:32;;;;;;;5.00;3.20;;;19.10;65.40;;;;;;5083329;27;46372;-89
2023/07/13 02:04:58;;;;;;;8.33;3.43;;;19.20;66.40;;;;;;5060155;27;48569;-87
2023/07/13 02:07:23;;;;;;;5.70;2.83;;;18.90;65.50;;;;;;5078775;27;46328;-81
2023/07/13 02:09:49;;;;;;;8.00;3.67;;;18.90;65.30;;;;;;5083974;27;46414;-80
2023/07/13 02:12:14;;;;;;;7.03;3.23;;;18.80;65.20;;;;;;5081009;27;46686;-81
2023/07/13 02:14:40;;;;;;;8.73;3.73;;;18.80;65.20;;;;;;5082487;27;46903;-81
2023/07/13 02:17:06;;;;;;;7.10;3.30;;;18.70;64.80;;;;;;5087585;27;46671;-80
2023/07/13 02:19:32;;;;;;;8.27;3.27;;;18.70;64.90;;;;;;5079220;27;46531;-80
2023/07/13 02:21:58;;;;;;;6.13;3.03;;;18.70;64.80;;;;;;5080955;27;46617;-80
2023/07/13 02:24:24;;;;;;;7.60;3.57;;;18.70;64.70;;;;;;5077787;27;47924;-80
2023/07/13 02:26:49;;;;;;;8.67;3.93;;;18.70;64.60;;;;;;5081561;27;46411;-81
2023/07/13 02:29:15;;;;;;;4.57;3.00;;;18.70;64.50;;;;;;5085179;27;46674;-80
2023/07/13 02:31:41;;;;;;;6.53;3.73;;;18.70;64.30;;;;;;5081548;27;46429;-80
2023/07/13 02:34:06;;;;;;;14.73;3.20;;;18.70;64.20;;;;;;5080604;27;46501;-81
2023/07/13 02:36:32;;;;;;;7.60;2.90;;;18.70;64.10;;;;;;5084274;27;46358;-82
2023/07/13 02:39:02;;;;;;;7.17;3.47;;;18.70;63.90;;;;;;5083213;27;46901;-80
2023/07/13 02:41:28;;;;;;;8.03;3.20;;;18.80;63.50;;;;;;5084047;27;46447;-80
2023/07/13 02:43:54;;;;;;;7.57;3.53;;;18.80;63.50;;;;;;5062808;27;49099;-80
2023/07/13 02:46:19;;;;;;;6.17;3.27;;;18.80;63.40;;;;;;5081148;27;46751;-81
2023/07/13 02:48:45;;;;;;;12.50;3.53;;;18.80;63.50;;;;;;5082274;27;46781;-80
2023/07/13 02:51:11;;;;;;;6.83;3.80;;;18.80;63.30;;;;;;5064936;27;47770;-81
2023/07/13 02:53:37;;;;;;;8.50;3.80;;;18.80;63.30;;;;;;5080294;27;46395;-81
2023/07/13 02:56:04;;;;;;;9.40;4.10;;;18.80;63.20;;;;;;5081747;27;46618;-80
2023/07/13 02:58:30;;;;;;;6.70;3.70;;;18.80;64.50;;;;;;5084390;27;46466;-80
2023/07/13 03:00:56;;;;;;;6.13;3.40;;;18.80;63.40;;;;;;5086837;27;46190;-82
2023/07/13 03:03:21;;;;;;;7.00;3.73;;;18.70;63.50;;;;;;5084789;27;47027;-80
2023/07/13 03:05:49;;;;;;;6.37;3.90;;;18.80;63.90;;;;;;5087557;27;46668;-79
2023/07/13 03:08:15;;;;;;;7.53;3.70;;;18.70;65.10;;;;;;5099509;27;46405;-81
2023/07/13 03:10:41;;;;;;;6.87;3.43;;;18.90;64.10;;;;;;5085979;27;46089;-80
2023/07/13 03:13:07;;;;;;;7.63;3.53;;;18.70;64.00;;;;;;5079268;27;47543;-81
2023/07/13 03:15:32;;;;;;;9.83;3.80;;;18.70;63.90;;;;;;5082469;27;46405;-81
2023/07/13 03:17:58;;;;;;;9.30;3.50;;;18.70;63.70;;;;;;5079959;27;46949;-81
2023/07/13 03:20:23;;;;;;;6.10;3.37;;;18.80;63.70;;;;;;5081533;27;46608;-81
2023/07/13 03:22:49;;;;;;;6.40;4.13;;;18.80;63.60;;;;;;5079629;27;47021;-81
2023/07/13 03:25:15;;;;;;;7.30;3.93;;;18.80;63.60;;;;;;5079822;27;46351;-80
2023/07/13 03:27:40;;;;;;;12.03;3.97;;;18.70;63.70;;;;;;5084021;27;47292;-79
2023/07/13 03:30:07;;;;;;;7.53;3.40;;;18.90;64.10;;;;;;5067738;27;46676;-81
2023/07/13 03:32:32;;;;;;;8.30;4.20;;;18.80;63.80;;;;;;5079656;27;47564;-80
2023/07/13 03:34:58;;;;;;;7.50;3.57;;;18.80;63.80;;;;;;5066408;27;47232;-81
2023/07/13 03:37:24;;;;;;;6.20;3.87;;;18.90;63.90;;;;;;5082490;27;46687;-80
2023/07/13 03:39:50;;;;;;;7.70;4.03;;;18.70;63.90;;;;;;5059860;27;46455;-79
2023/07/13 03:42:15;;;;;;;8.97;4.10;;;18.60;64.00;;;;;;5079511;27;46772;-80
2023/07/13 03:44:42;;;;;;;7.50;4.13;;;18.60;64.30;;;;;;5080366;27;47473;-79
2023/07/13 03:47:08;;;;;;;8.90;3.90;;;18.60;64.40;;;;;;5080332;27;46090;-79
2023/07/13 03:49:34;;;;;;;10.87;4.07;;;18.50;64.40;;;;;;5078745;27;46926;-80
2023/07/13 03:52:00;;;;;;;8.93;3.80;;;18.50;64.40;;;;;;5081027;27;46704;-80
2023/07/13 03:54:26;;;;;;;6.70;4.00;;;18.50;64.50;;;;;;5062618;27;47006;-81
2023/07/13 03:56:52;;;;;;;7.43;4.10;;;18.50;64.50;;;;;;5062397;27;46466;-80
2023/07/13 03:59:17;;;;;;;7.00;4.23;;;18.60;64.40;;;;;;5081793;27;46610;-80
2023/07/13 04:01:44;;;;;;;8.80;4.50;;;18.70;62.90;;;;;;5080821;27;46734;-79
2023/07/13 04:04:09;;;;;;;7.40;4.73;;;18.80;64.10;;;;;;5079871;27;46352;-81
2023/07/13 04:06:35;;;;;;;6.77;3.80;;;18.70;63.90;;;;;;5061653;27;46547;-79
2023/07/13 04:09:05;;;;;;;7.03;4.20;;;18.80;63.90;;;;;;5063494;27;46466;-79
2023/07/13 04:11:31;;;;;;;7.40;4.40;;;18.80;63.80;;;;;;5081723;27;46769;-80
2023/07/13 04:13:57;;;;;;;6.00;3.90;;;18.80;63.70;;;;;;5083241;27;46782;-80
2023/07/13 04:16:23;;;;;;;12.13;4.23;;;18.90;64.00;;;;;;5081182;27;46685;-79
2023/07/13 04:18:49;;;;;;;6.97;4.67;;;18.80;64.00;;;;;;5079493;27;47119;-77
2023/07/13 04:21:16;;;;;;;8.10;4.50;;;18.80;64.10;;;;;;5060078;27;48129;-79
2023/07/13 04:23:42;;;;;;;17.23;4.47;;;18.80;64.10;;;;;;5076575;27;46352;-80
2023/07/13 04:26:08;;;;;;;7.07;4.57;;;18.80;64.10;;;;;;5083574;27;46359;-79
2023/07/13 04:28:34;;;;;;;9.77;3.90;;;18.80;64.00;;;;;;5078220;27;46644;-78
2023/07/13 04:31:00;;;;;;;11.53;4.10;;;18.80;64.10;;;;;;5079393;27;46709;-80
2023/07/13 04:33:27;;;;;;;11.13;4.23;;;18.90;64.00;;;;;;5078620;27;47110;-79
2023/07/13 04:35:57;;;;;;;9.80;4.47;;;18.90;64.00;;;;;;5081393;27;46479;-79
2023/07/13 04:38:28;;;;;;;5.53;3.90;;;18.80;63.90;;;;;;5082773;27;46499;-82
2023/07/13 04:41:05;;;;;;;6.80;4.03;;;18.80;63.90;;;;;;5077479;27;47508;-80
2023/07/13 04:43:32;;;;;;;15.33;4.37;;;18.90;64.10;;;;;;5079732;27;45822;-78
2023/07/13 04:46:04;;;;;;;10.60;4.50;;;18.90;63.90;;;;;;5077644;27;46469;-80
2023/07/13 04:48:29;;;;;;;8.97;4.53;;;18.90;63.90;;;;;;5064862;27;46470;-80
2023/07/13 04:50:57;;;;;;;8.57;4.40;;;18.80;63.90;;;;;;5062065;27;48326;-79
2023/07/13 04:53:22;;;;;;;6.40;4.30;;;18.90;64.10;;;;;;5082256;27;46497;-79
2023/07/13 04:55:48;;;;;;;7.77;4.57;;;18.90;63.80;;;;;;5062085;27;46492;-79
2023/07/13 04:58:13;;;;;;;7.37;4.77;;;18.90;63.80;;;;;;5077385;27;46233;-81
2023/07/13 05:00:39;;;;;;;12.77;5.00;;;19.00;63.70;;;;;;5080418;27;46746;-81
2023/07/13 05:03:05;;;;;;;9.87;4.90;;;19.20;63.70;;;;;;5081380;27;46406;-81
2023/07/13 05:05:31;;;;;;;8.87;5.00;;;19.20;63.60;;;;;;5079831;27;46477;-78
2023/07/13 05:07:57;;;;;;;8.77;5.00;;;19.20;63.40;;;;;;5078477;27;46443;-80
2023/07/13 05:10:23;;;;;;;9.97;4.80;;;19.20;63.20;;;;;;5062667;27;48321;-80
2023/07/13 05:12:49;;;;;;;9.90;4.47;;;19.30;63.10;;;;;;5080793;27;46887;-80
2023/07/13 05:15:15;;;;;;;10.63;4.90;;;19.40;63.00;;;;;;5080395;27;46708;-80
2023/07/13 05:17:40;;;;;;;8.43;4.77;;;19.60;62.90;;;;;;5078644;27;46581;-80
2023/07/13 05:20:08;;;;;;;10.50;4.00;;;19.60;62.50;;;;;;5075681;27;46490;-79
2023/07/13 05:22:35;;;;;;;8.83;4.17;;;19.70;62.30;;;;;;5081365;27;47440;-79
2023/07/13 05:25:01;;;;;;;11.63;4.37;;;19.90;62.20;;;;;;5079114;27;46758;-79
2023/07/13 05:27:27;;;;;;;6.93;4.30;;;19.80;62.20;;;;;;5076207;27;46437;-80
2023/07/13 05:29:52;;;;;;;8.60;4.57;;;19.80;62.40;;;;;;5063504;27;48017;-78
2023/07/13 05:32:18;;;;;;;8.70;3.70;;;19.90;62.20;;;;;;5074721;27;46399;-79
2023/07/13 05:34:44;;;;;;;9.03;4.53;;;20.00;62.00;;;;;;5078766;27;46805;-80
2023/07/13 05:37:10;;;;;;;9.37;3.93;;;20.10;61.80;;;;;;5079857;27;46445;-81
2023/07/13 05:39:35;;;;;;;9.03;3.90;;;20.10;61.50;;;;;;5077353;27;46477;-79
2023/07/13 05:42:02;;;;;;;8.67;3.97;;;20.20;61.00;;;;;;5077402;27;46321;-80
2023/07/13 05:44:27;;;;;;;10.43;4.03;;;20.30;61.10;;;;;;5079300;27;46747;-79
2023/07/13 05:46:54;;;;;;;16.77;4.50;;;20.30;61.10;;;;;;5078856;27;47069;-80
2023/07/13 05:49:20;;;;;;;5.63;3.47;;;20.30;61.10;;;;;;5078143;27;46183;-82
2023/07/13 05:51:45;;;;;;;5.70;3.70;;;20.40;61.10;;;;;;5080345;27;46208;-81
2023/07/13 05:54:11;;;;;;;6.30;3.93;;;20.50;61.20;;;;;;5080220;27;46428;-82
2023/07/13 05:56:37;;;;;;;6.50;3.90;;;20.50;61.20;;;;;;5078018;27;46777;-82
2023/07/13 05:59:02;;;;;;;11.17;3.70;;;20.40;61.10;;;;;;5078572;27;47198;-82
2023/07/13 06:01:30;;;;;;;10.47;3.50;;;20.30;61.10;;;;;;5078040;27;46427;-82
2023/07/13 06:03:56;;;;;;;7.57;3.50;;;20.30;61.10;;;;;;5079514;27;46520;-78
2023/07/13 06:06:22;;;;;;;11.43;3.30;;;20.30;61.10;;;;;;5061703;28;46785;-82
2023/07/13 06:08:47;;;;;;;14.70;3.77;;;20.40;61.10;;;;;;5079852;27;46460;-82
2023/07/13 06:11:19;;;;;;;10.33;3.70;;;20.40;61.10;;;;;;5062385;27;46431;-80
2023/07/13 06:13:45;;;;;;;9.20;3.67;;;20.30;61.00;;;;;;5057616;28;46645;-85
2023/07/13 06:16:12;;;;;;;12.50;3.73;;;20.30;60.80;;;;;;5075889;27;46925;-82
2023/07/13 06:18:39;;;;;;;7.87;3.00;;;20.30;60.60;;;;;;5056857;27;48384;-82
2023/07/13 06:21:10;;;;;;;7.87;3.47;;;20.10;60.80;;;;;;5079694;27;46508;-83
2023/07/13 06:23:36;;;;;;;6.17;2.90;;;20.00;60.80;;;;;;5080911;27;46572;-83
2023/07/13 06:26:02;;;;;;;9.93;3.07;;;20.00;60.70;;;;;;5079627;27;46423;-81
2023/07/13 06:28:28;;;;;;;6.53;3.23;;;20.00;60.20;;;;;;5084519;27;47450;-81
2023/07/13 06:30:54;;;;;;;9.57;3.23;;;19.90;60.00;;;;;;5077962;27;46402;-80
2023/07/13 06:33:19;;;;;;;9.20;3.37;;;19.90;59.90;;;;;;5079820;27;46520;-84
2023/07/13 06:35:45;;;;;;;11.57;3.00;;;19.70;59.80;;;;;;5079628;27;46833;-84
2023/07/13 06:38:10;;;;;;;12.17;3.43;;;19.70;59.60;;;;;;5080435;27;46803;-83
2023/07/13 06:40:36;;;;;;;7.40;2.60;;;19.40;59.50;;;;;;5083918;27;46499;-83
2023/07/13 06:43:01;;;;;;;7.97;3.27;;;19.40;59.80;;;;;;5082312;27;46557;-81
2023/07/13 06:45:27;;;;;;;5.57;2.67;;;19.30;60.10;;;;;;5083011;27;46565;-84
2023/07/13 06:47:52;;;;;;;6.23;2.27;;;19.20;59.80;;;;;;5081786;27;46684;-82
2023/07/13 06:50:18;;;;;;;7.37;2.57;;;19.10;60.50;;;;;;5088160;27;46521;-81
2023/07/13 06:52:43;;;;;;;8.33;2.20;;;19.00;58.80;;;;;;5083948;27;46595;-81
2023/07/13 06:55:09;;;;;;;4.90;2.67;;;19.10;58.30;;;;;;5083715;27;46412;-82
2023/07/13 06:57:35;;;;;;;5.33;2.40;;;19.20;57.40;;;;;;5084525;27;47038;-78
2023/07/13 07:00:00;;;;;;;7.50;2.60;;;19.20;56.70;;;;;;5081824;27;46684;-83
2023/07/13 07:02:26;;;;;;;12.87;2.93;;;19.20;56.10;;;;;;5079717;27;46502;-83
2023/07/13 07:04:51;;;;;;;6.50;2.53;;;19.30;55.00;;;;;;5062983;27;46549;-85
2023/07/13 07:07:17;;;;;;;9.37;2.80;;;19.40;54.30;;;;;;5084465;27;47173;-83
2023/07/13 07:09:42;;;;;;;4.80;2.47;;;19.60;53.60;;;;;;5081175;27;46763;-82
2023/07/13 07:12:08;;;;;;;12.90;3.17;;;19.60;53.40;;;;;;5080906;27;46771;-83
2023/07/13 07:14:34;;;;;;;7.77;2.53;;;19.50;53.30;;;;;;5061242;28;46618;-76
2023/07/13 07:17:00;;;;;;;8.10;3.40;;;19.50;53.10;;;;;;5062796;27;47994;-80
2023/07/13 07:19:26;;;;;;;8.37;2.93;;;19.50;52.70;;;;;;5066711;27;46427;-81
2023/07/13 07:21:51;;;;;;;12.53;2.73;;;19.70;52.50;;;;;;5080006;27;46489;-81
2023/07/13 07:24:17;;;;;;;10.50;2.40;;;20.00;51.60;;;;;;5079505;27;46915;-81
2023/07/13 07:26:42;;;;;;;9.67;2.73;;;20.20;50.80;;;;;;5084106;27;47620;-81
2023/07/13 07:29:08;;;;;;;9.73;2.73;;;20.40;49.90;;;;;;5084827;27;46725;-82
2023/07/13 07:31:34;;;;;;;14.27;3.00;;;20.70;48.60;;;;;;5079706;27;46685;-81
2023/07/13 07:33:59;;;;;;;9.13;2.60;;;21.10;48.70;;;;;;5059439;27;46219;-83
2023/07/13 07:36:25;;;;;;;5.60;2.20;;;21.90;46.90;;;;;;5064558;27;47327;-84
2023/07/13 07:38:51;;;;;;;7.00;2.50;;;22.10;45.10;;;;;;5082431;27;46525;-82
2023/07/13 07:41:16;;;;;;;7.73;2.70;;;22.40;43.70;;;;;;5079630;27;46624;-82
2023/07/13 07:43:42;;;;;;;10.43;2.10;;;22.80;42.50;;;;;;5082191;27;46119;-81
2023/07/13 07:46:07;;;;;;;9.27;2.00;;;23.20;41.00;;;;;;5063567;27;48475;-81
2023/07/13 07:48:33;;;;;;;8.90;2.30;;;23.50;38.90;;;;;;5060853;27;47292;-80
2023/07/13 07:50:58;;;;;;;9.70;2.17;;;23.70;37.40;;;;;;5080632;27;46437;-81
2023/07/13 07:53:24;;;;;;;7.67;2.10;;;23.80;37.50;;;;;;5081395;27;46425;-81
2023/07/13 07:55:49;;;;;;;6.23;2.13;;;23.70;36.80;;;;;;5081828;27;46646;-80
2023/07/13 07:58:15;;;;;;;5.30;1.80;;;23.60;36.20;;;;;;5062491;27;46542;-81
2023/07/13 08:00:41;;;;;;;7.43;2.30;;;23.40;35.80;;;;;;5062613;27;46586;-81
2023/07/13 08:03:06;;;;;;;13.97;2.23;;;23.20;36.00;;;;;;5080910;27;46474;-82
2023/07/13 08:05:35;;;;;;;6.53;2.20;;;23.20;36.40;;;;;;5060895;27;49310;-80
2023/07/13 08:08:01;;;;;;;5.20;1.93;;;23.10;36.10;;;;;;5062364;27;46566;-83
2023/07/13 08:10:27;;;;;;;5.97;2.13;;;23.00;36.00;;;;;;5082430;27;46430;-83
2023/07/13 08:12:52;;;;;;;6.80;1.93;;;23.10;35.60;;;;;;5067159;27;46480;-80
2023/07/13 08:15:20;;;;;;;6.23;2.10;;;23.00;35.40;;;;;;5060890;27;47923;-82
2023/07/13 08:17:46;;;;;;;12.80;3.00;;;22.90;35.10;;;;;;5081482;27;46772;-82
2023/07/13 08:20:12;;;;;;;6.70;2.10;;;22.90;35.10;;;;;;5078865;27;46593;-82
2023/07/13 08:22:38;;;;;;;4.80;2.10;;;22.90;35.00;;;;;;5083610;27;46487;-81
2023/07/13 08:25:04;;;;;;;7.37;2.17;;;22.90;34.60;;;;;;5059212;27;48227;-80
2023/07/13 08:27:29;;;;;;;5.30;2.10;;;22.90;34.50;;;;;;5079587;27;46442;-80
2023/07/13 08:29:55;;;;;;;7.93;2.20;;;22.80;34.10;;;;;;5080205;27;46442;-82
2023/07/13 08:32:22;;;;;;;7.50;2.23;;;23.00;33.70;;;;;;5063142;27;46864;-82
2023/07/13 08:34:48;;;;;;;5.87;2.10;;;23.00;32.70;;;;;;5078964;27;48299;-82
2023/07/13 08:37:15;;;;;;;12.40;2.10;;;23.20;32.40;;;;;;5060841;27;46425;-83
2023/07/13 08:39:40;;;;;;;8.50;2.50;;;23.30;31.80;;;;;;5083172;27;46485;-83
2023/07/13 08:42:18;;;;;;;5.93;2.07;;;23.50;31.10;;;;;;5081154;27;46428;-83
2023/07/13 08:44:57;;;;;;;6.10;2.13;;;23.70;30.00;;;;;;5080079;27;47462;-84
2023/07/13 08:47:24;;;;;;;5.77;2.23;;;23.80;29.70;;;;;;5079452;27;46353;-83
2023/07/13 08:49:50;;;;;;;6.83;2.43;;;23.90;29.40;;;;;;5081472;27;46687;-84
2023/07/13 08:52:32;;;;;;;5.40;2.07;;;24.00;29.10;;;;;;5064063;27;46469;-83
2023/07/13 08:55:06;;;;;;;6.80;1.90;;;24.20;28.60;;;;;;5061085;27;49265;-81
2023/07/13 08:57:33;;;;;;;4.40;2.30;;;24.30;28.40;;;;;;5078935;27;46988;-81
2023/07/13 08:59:59;;;;;;;4.20;1.93;;;24.40;27.90;;;;;;5077671;27;46414;-79
2023/07/13 09:18:37;;;;;;;5.70;2.07;;;24.00;26.20;;;;;;5602406;22;47325;-79
2023/07/13 09:21:09;;;;;;;4.67;1.87;;;24.00;26.90;;;;;;5074558;28;47047;-84
2023/07/13 09:23:35;;;;;;;11.07;2.27;;;23.90;26.50;;;;;;5077023;28;46481;-81
2023/07/13 09:26:11;;;;;;;6.60;2.27;;;24.00;26.30;;;;;;5077131;28;46449;-82
2023/07/13 09:28:45;;;;;;;4.23;2.37;;;24.40;25.50;;;;;;5075420;28;46727;-76
2023/07/13 09:31:33;;;;;;;4.70;2.13;;;24.80;25.30;;;;;;5073923;28;46521;-82
2023/07/13 09:33:59;;;;;;;6.53;2.43;;;25.10;24.50;;;;;;5076067;28;46504;-82
2023/07/13 09:36:28;;;;;;;8.10;2.37;;;25.30;24.30;;;;;;5078012;28;46707;-82
2023/07/13 09:38:57;;;;;;;13.33;2.30;;;25.50;23.60;;;;;;5092053;28;47477;-82
2023/07/13 09:41:39;;;;;;;5.83;2.53;;;25.40;23.60;;;;;;5081130;28;45803;-81
2023/07/13 09:44:33;;;;;;;7.87;2.27;;;25.60;22.90;;;;;;5098274;28;45772;-83
2023/07/13 09:46:59;;;;;;;6.23;2.00;;;25.70;22.90;;;;;;5077175;28;46132;-82
2023/07/13 09:49:26;;;;;;;9.83;2.40;;;26.10;22.70;;;;;;5086024;28;47448;-86
2023/07/13 09:52:10;;;;;;;6.97;1.93;;;26.30;21.80;;;;;;5081488;28;46147;-81
2023/07/13 09:54:37;;;;;;;12.93;2.10;;;26.20;20.90;;;;;;5060398;28;46513;-83
2023/07/13 09:57:11;;;;;;;6.10;2.50;;;26.20;20.80;;;;;;5059573;28;46141;-79
2023/07/13 09:59:43;;;;;;;6.17;2.07;;;26.20;19.90;;;;;;5076834;27;48096;-81
2023/07/13 10:02:32;;;;;;;4.80;2.03;;;26.20;19.80;;;;;;5061556;28;47104;-84
2023/07/13 10:05:10;;;;;;;9.90;2.73;;;26.20;18.90;;;;;;5057635;28;46724;-86
2023/07/13 10:07:40;;;;;;;7.03;2.33;;;26.40;18.30;;;;;;5076572;28;46561;-86
2023/07/13 10:10:15;;;;;;;6.97;1.60;;;26.20;17.30;;;;;;5076078;28;47610;-84
2023/07/13 10:12:41;;;;;;;6.93;1.80;;;26.20;16.10;;;;;;5078401;27;46551;-83
2023/07/13 10:15:13;;;;;;;5.17;1.77;;;26.30;15.60;;;;;;5081509;28;46688;-85
2023/07/13 10:17:40;;;;;;;7.23;1.90;;;26.10;14.70;;;;;;5079763;28;46446;-84
2023/07/13 10:20:11;;;;;;;6.07;1.83;;;26.20;14.70;;;;;;5085434;28;46731;-87
2023/07/13 10:22:54;;;;;;;7.97;1.80;;;26.00;14.10;;;;;;5081740;28;46569;-86
2023/07/13 10:25:23;;;;;;;5.57;1.80;;;26.20;13.90;;;;;;5079500;27;46331;-84
2023/07/13 10:27:57;;;;;;;7.17;2.20;;;26.10;13.70;;;;;;5081081;28;46675;-86
2023/07/13 10:30:29;;;;;;;6.40;1.70;;;25.80;14.00;;;;;;5063136;28;48085;-85
2023/07/13 10:32:59;;;;;;;5.33;1.77;;;25.60;14.00;;;;;;5083363;27;46633;-87
2023/07/13 10:35:27;;;;;;;7.20;2.13;;;25.50;13.60;;;;;;5084592;28;46273;-87
2023/07/13 10:38:06;;;;;;;6.83;1.53;;;25.40;13.80;;;;;;5063533;28;46535;-86
2023/07/13 10:40:38;;;;;;;5.03;1.90;;;24.60;11.60;;;;;;5089250;27;46417;-87
2023/07/13 10:43:13;;;;;;;6.40;2.03;;;24.60;12.40;;;;;;5071489;28;46850;-84
2023/07/13 10:45:40;;;;;;;6.20;1.63;;;24.60;12.40;;;;;;5065795;28;46641;-79
2023/07/13 10:48:11;;;;;;;6.80;1.80;;;24.50;11.90;;;;;;5083859;28;45901;-87
2023/07/13 10:50:45;;;;;;;6.27;1.93;;;24.40;9.10;;;;;;5086417;27;49225;-83
2023/07/13 10:53:29;;;;;;;6.43;1.70;;;24.30;9.30;;;;;;5064373;28;46564;-82
2023/07/13 10:56:00;;;;;;;5.53;2.00;;;24.60;9.10;;;;;;5061601;28;46459;-86
2023/07/13 10:58:36;;;;;;;5.20;1.80;;;25.10;9.20;;;;;;5074402;28;46612;-83
2023/07/13 11:01:16;;;;;;;9.03;2.23;;;25.60;8.90;;;;;;5066515;28;47855;-82
2023/07/13 11:03:59;;;;;;;8.03;2.10;;;25.60;8.70;;;;;;5087457;28;46414;-88
2023/07/13 11:06:33;;;;;;;7.60;2.00;;;25.60;8.30;;;;;;5071643;28;46757;-82
2023/07/13 11:09:30;;;;;;;7.83;2.00;;;25.50;7.30;;;;;;5089661;28;47696;-84
2023/07/13 11:11:58;;;;;;;4.60;2.03;;;25.40;8.10;;;;;;5071113;28;47998;-80
2023/07/13 11:14:36;;;;;;;4.60;1.67;;;25.60;8.30;;;;;;5090129;28;45948;-83
2023/07/13 11:17:27;;;;;;;11.73;2.10;;;25.80;8.10;;;;;;5071619;28;46481;-81
2023/07/13 11:19:53;;;;;;;12.20;2.20;;;26.00;7.50;;;;;;5066913;28;45962;-87
2023/07/13 11:22:24;;;;;;;5.93;2.13;;;25.70;7.10;;;;;;5086071;28;46919;-87
2023/07/13 11:24:57;;;;;;;6.33;2.07;;;25.60;7.00;;;;;;5081193;27;46800;-85
2023/07/13 11:27:42;;;;;;;10.33;2.10;;;26.00;6.20;;;;;;5080127;28;46403;-84
2023/07/13 11:30:27;;;;;;;8.00;1.80;;;26.00;6.80;;;;;;5062098;28;46464;-87
2023/07/13 11:33:22;;;;;;;5.40;2.30;;;26.00;7.30;;;;;;5039391;28;46460;-86
2023/07/13 11:35:51;;;;;;;7.13;1.70;;;25.70;7.00;;;;;;5059124;28;46722;-86
2023/07/13 11:38:20;;;;;;;4.13;1.83;;;25.80;7.50;;;;;;5078569;27;46541;-85
2023/07/13 11:40:48;;;;;;;9.53;2.10;;;25.50;7.50;;;;;;5063331;28;46595;-88
2023/07/13 11:43:17;;;;;;;8.10;1.70;;;25.20;7.50;;;;;;5062761;28;48059;-86
2023/07/13 11:45:44;;;;;;;4.50;1.80;;;25.00;7.70;;;;;;5080867;27;46887;-81
2023/07/13 11:48:31;;;;;;;5.90;2.17;;;24.80;7.80;;;;;;5077008;27;46858;-79
2023/07/13 11:51:02;;;;;;;9.53;2.37;;;25.00;8.40;;;;;;5061516;28;46565;-83
2023/07/13 11:53:32;;;;;;;6.63;2.10;;;25.30;8.10;;;;;;5078047;27;47174;-82
2023/07/13 11:55:59;;;;;;;5.03;2.20;;;25.30;8.60;;;;;;5058489;28;46430;-83
2023/07/13 11:58:25;;;;;;;8.40;2.17;;;25.20;9.00;;;;;;5080250;28;46493;-84
2023/07/13 12:00:53;;;;;;;4.00;1.70;;;25.50;9.10;;;;;;5079609;28;46533;-81
2023/07/13 12:03:24;;;;;;;5.67;1.97;;;25.90;8.70;;;;;;5078545;28;46773;-81
2023/07/13 12:06:27;;;;;;;8.40;1.90;;;26.10;9.00;;;;;;5081449;28;46422;-83
2023/07/13 12:08:57;;;;;;;4.47;1.80;;;26.20;7.30;;;;;;5077790;28;46629;-84
2023/07/13 12:11:22;;;;;;;4.77;1.90;;;26.20;7.70;;;;;;5077801;28;46595;-85
2023/07/13 12:13:48;;;;;;;6.23;1.70;;;26.20;7.70;;;;;;5061382;28;47931;-85
2023/07/13 12:16:32;;;;;;;9.07;1.70;;;26.40;7.20;;;;;;5075372;28;46812;-84
2023/07/13 12:18:59;;;;;;;8.03;1.97;;;26.70;6.40;;;;;;5074864;28;46865;-79
2023/07/13 12:21:33;;;;;;;3.77;1.50;;;26.60;6.30;;;;;;5075099;28;46586;-81
2023/07/13 12:24:02;;;;;;;7.47;1.60;;;26.60;6.30;;;;;;5077595;27;46491;-80
2023/07/13 12:26:28;;;;;;;9.03;1.60;;;26.70;6.50;;;;;;5076419;27;46552;-80
2023/07/13 12:28:56;;;;;;;5.57;1.57;;;26.60;6.50;;;;;;5075370;28;46496;-81
2023/07/13 12:31:33;;;;;;;5.10;1.80;;;26.50;6.30;;;;;;5076834;28;47682;-82
2023/07/13 12:34:07;;;;;;;3.73;1.70;;;26.40;6.80;;;;;;5058387;28;48557;-82
2023/07/13 12:36:35;;;;;;;6.77;1.73;;;26.30;7.00;;;;;;5074692;27;46467;-82
2023/07/13 12:39:12;;;;;;;8.03;1.80;;;26.20;7.20;;;;;;5076511;28;46411;-82
2023/07/13 12:41:38;;;;;;;6.10;2.10;;;26.10;7.10;;;;;;5077555;27;46397;-83
2023/07/13 12:44:09;;;;;;;4.70;1.80;;;26.30;7.20;;;;;;5075219;28;46474;-82
2023/07/13 12:46:34;;;;;;;4.17;1.50;;;26.30;7.10;;;;;;5059547;28;46503;-82
2023/07/13 12:49:00;;;;;;;7.10;1.60;;;26.10;6.90;;;;;;5075039;28;46426;-79
2023/07/13 12:51:27;;;;;;;5.20;1.60;;;26.00;6.40;;;;;;5075940;27;46517;-82
2023/07/13 12:54:05;;;;;;;3.70;1.70;;;26.10;6.20;;;;;;5058152;28;47970;-83
2023/07/13 12:56:33;;;;;;;5.57;1.73;;;26.10;5.80;;;;;;5075492;28;46721;-80
2023/07/13 12:59:02;;;;;;;6.00;1.90;;;26.50;5.20;;;;;;5075279;28;46748;-82
2023/07/13 13:01:29;;;;;;;4.60;1.50;;;26.60;4.40;;;;;;5077713;28;46461;-82
2023/07/13 13:03:56;;;;;;;4.30;1.70;;;26.90;4.50;;;;;;5075944;28;47946;-82
2023/07/13 13:06:26;;;;;;;9.93;1.93;;;27.30;4.70;;;;;;5077596;28;46421;-84
2023/07/13 13:08:54;;;;;;;5.57;1.87;;;26.70;4.40;;;;;;5075455;27;46756;-82